createdAt,value
2023-02-26T00:00:46.314Z,-1.50
2023-02-26T00:01:49.174Z,-1.50
2023-02-26T00:02:51.159Z,-1.50
2023-02-26T00:03:54.105Z,-1.50
2023-02-26T00:04:55.910Z,-1.50
2023-02-26T00:06:02.102Z,-1.50
2023-02-26T00:07:05.402Z,-1.50
2023-02-26T00:08:07.173Z,-1.60
2023-02-26T00:09:09.029Z,-1.50
2023-02-26T00:10:12.380Z,-1.60
2023-02-26T00:11:14.170Z,-1.60
2023-02-26T00:12:16.089Z,-1.60
2023-02-26T00:13:18.099Z,-1.60
2023-02-26T00:14:20.166Z,-1.60
2023-02-26T00:15:22.314Z,-1.60
2023-02-26T00:16:31.018Z,-1.60
2023-02-26T00:17:36.980Z,-1.60
2023-02-26T00:18:38.854Z,-1.70
2023-02-26T00:19:40.766Z,-1.60
2023-02-26T00:20:45.493Z,-1.70
2023-02-26T00:21:47.362Z,-1.70
2023-02-26T00:22:49.303Z,-1.70
2023-02-26T00:23:51.548Z,-1.70
2023-02-26T00:24:53.473Z,-1.70
2023-02-26T00:25:55.377Z,-1.70
2023-02-26T00:26:57.152Z,-1.70
2023-02-26T00:27:59.039Z,-1.70
2023-02-26T00:29:00.992Z,-1.70
2023-02-26T00:30:06.524Z,-1.70
2023-02-26T00:31:09.041Z,-1.70
2023-02-26T00:32:11.713Z,-1.70
2023-02-26T00:33:13.701Z,-1.70
2023-02-26T00:34:15.972Z,-1.70
2023-02-26T00:35:18.029Z,-1.70
2023-02-26T00:36:24.453Z,-1.70
2023-02-26T00:37:38.622Z,-1.70
2023-02-26T00:38:43.446Z,-1.70
2023-02-26T00:39:51.457Z,-1.70
2023-02-26T00:40:54.778Z,-1.70
2023-02-26T00:41:56.703Z,-1.70
2023-02-26T00:42:58.782Z,-1.80
2023-02-26T00:44:00.681Z,-1.80
2023-02-26T00:45:03.457Z,-1.80
2023-02-26T00:46:25.058Z,-1.70
2023-02-26T00:47:33.917Z,-1.70
2023-02-26T00:49:13.977Z,-1.70
2023-02-26T00:50:18.672Z,-1.70
2023-02-26T00:51:41.221Z,-1.70
2023-02-26T00:53:01.512Z,-1.70
2023-02-26T00:54:16.684Z,-1.70
2023-02-26T00:55:18.445Z,-1.70
2023-02-26T00:56:20.209Z,-1.70
2023-02-26T00:57:21.975Z,-1.70
2023-02-26T00:58:23.708Z,-1.70
2023-02-26T00:59:25.706Z,-1.70
2023-02-26T01:00:27.845Z,-1.70
2023-02-26T01:01:29.924Z,-1.70
2023-02-26T01:02:31.882Z,-1.70
2023-02-26T01:03:33.786Z,-1.70
2023-02-26T01:04:36.852Z,-1.70
2023-02-26T01:05:38.929Z,-1.70
2023-02-26T01:06:45.179Z,-1.70
2023-02-26T01:07:56.216Z,-1.70
2023-02-26T01:09:13.112Z,-1.70
2023-02-26T01:10:15.153Z,-1.70
2023-02-26T01:11:17.064Z,-1.70
2023-02-26T01:12:18.965Z,-1.70
2023-02-26T01:13:20.763Z,-1.70
2023-02-26T01:14:23.059Z,-1.70
2023-02-26T01:15:25.224Z,-1.70
2023-02-26T01:16:28.123Z,-1.70
2023-02-26T01:17:48.500Z,-1.70
2023-02-26T01:19:01.927Z,-1.70
2023-02-26T01:20:10.208Z,-1.70
2023-02-26T01:21:15.283Z,-1.70
2023-02-26T01:22:22.465Z,-1.60
2023-02-26T01:23:30.728Z,-1.70
2023-02-26T01:24:34.446Z,-1.70
2023-02-26T01:25:41.453Z,-1.70
2023-02-26T01:26:43.444Z,-1.70
2023-02-26T01:27:45.370Z,-1.70
2023-02-26T01:28:47.234Z,-1.70
2023-02-26T01:29:49.058Z,-1.60
2023-02-26T01:30:51.517Z,-1.60
2023-02-26T01:31:53.448Z,-1.60
2023-02-26T01:33:06.720Z,-1.60
2023-02-26T01:34:28.857Z,-1.60
2023-02-26T01:35:46.052Z,-1.60
2023-02-26T01:36:51.997Z,-1.70
2023-02-26T01:37:57.506Z,-1.70
2023-02-26T01:39:16.296Z,-1.70
2023-02-26T01:40:33.147Z,-1.70
2023-02-26T01:41:44.150Z,-1.70
2023-02-26T01:42:50.646Z,-1.70
2023-02-26T01:43:52.641Z,-1.70
2023-02-26T01:45:03.101Z,-1.70
2023-02-26T01:46:16.119Z,-1.70
2023-02-26T01:47:23.549Z,-1.70
2023-02-26T01:48:37.654Z,-1.60
2023-02-26T01:49:39.557Z,-1.70
2023-02-26T01:50:41.350Z,-1.70
2023-02-26T01:51:48.352Z,-1.70
2023-02-26T01:52:50.305Z,-1.70
2023-02-26T01:53:52.115Z,-1.70
2023-02-26T01:54:53.881Z,-1.60
2023-02-26T01:55:57.362Z,-1.60
2023-02-26T01:57:05.007Z,-1.70
2023-02-26T01:58:06.799Z,-1.70
2023-02-26T01:59:09.693Z,-1.70
2023-02-26T02:00:11.775Z,-1.60
2023-02-26T02:01:13.512Z,-1.60
2023-02-26T02:02:18.109Z,-1.60
2023-02-26T02:03:21.551Z,-1.60
2023-02-26T02:04:24.173Z,-1.60
2023-02-26T02:05:30.169Z,-1.60
2023-02-26T02:06:31.879Z,-1.60
2023-02-26T02:07:33.669Z,-1.60
2023-02-26T02:08:36.375Z,-1.60
2023-02-26T02:09:38.330Z,-1.70
2023-02-26T02:10:47.045Z,-1.70
2023-02-26T02:12:09.093Z,-1.70
2023-02-26T02:13:25.785Z,-1.70
2023-02-26T02:14:37.100Z,-1.70
2023-02-26T02:15:42.917Z,-1.70
2023-02-26T02:16:52.740Z,-1.70
2023-02-26T02:17:54.427Z,-1.80
2023-02-26T02:19:02.350Z,-1.70
2023-02-26T02:20:24.349Z,-1.80
2023-02-26T02:21:44.188Z,-1.70
2023-02-26T02:22:55.319Z,-1.70
2023-02-26T02:24:01.365Z,-1.70
2023-02-26T02:25:09.104Z,-1.80
2023-02-26T02:26:29.751Z,-1.80
2023-02-26T02:27:40.646Z,-1.80
2023-02-26T02:29:00.765Z,-1.80
2023-02-26T02:30:20.836Z,-1.80
2023-02-26T02:32:50.061Z,-1.80
2023-02-26T02:33:53.150Z,-1.80
2023-02-26T02:34:57.555Z,-1.80
2023-02-26T02:36:05.354Z,-1.90
2023-02-26T02:37:14.845Z,-1.90
2023-02-26T02:38:19.747Z,-1.90
2023-02-26T02:39:32.431Z,-1.90
2023-02-26T02:40:36.561Z,-1.90
2023-02-26T02:41:42.600Z,-1.90
2023-02-26T02:42:46.968Z,-1.90
2023-02-26T02:43:49.451Z,-1.90
2023-02-26T02:44:55.256Z,-2.00
2023-02-26T02:46:29.628Z,-2.00
2023-02-26T02:47:34.095Z,-2.00
2023-02-26T02:48:43.211Z,-2.00
2023-02-26T02:49:48.462Z,-2.10
2023-02-26T02:50:52.325Z,-2.10
2023-02-26T02:52:00.575Z,-2.10
2023-02-26T02:53:11.076Z,-2.10
2023-02-26T02:54:29.098Z,-2.10
2023-02-26T02:55:34.052Z,-2.20
2023-02-26T02:56:39.043Z,-2.20
2023-02-26T02:57:44.276Z,-2.20
2023-02-26T02:58:51.335Z,-2.30
2023-02-26T02:59:58.021Z,-2.30
2023-02-26T03:01:01.904Z,-2.30
2023-02-26T03:02:24.669Z,-2.30
2023-02-26T03:03:39.399Z,-2.30
2023-02-26T03:04:42.724Z,-2.30
2023-02-26T03:05:44.683Z,-2.40
2023-02-26T03:06:46.904Z,-2.30
2023-02-26T03:08:00.692Z,-2.30
2023-02-26T03:09:04.331Z,-2.30
2023-02-26T03:10:07.119Z,-2.30
2023-02-26T03:11:09.503Z,-2.30
2023-02-26T03:12:11.347Z,-2.30
2023-02-26T03:13:21.796Z,-2.30
2023-02-26T03:14:24.494Z,-2.30
2023-02-26T03:15:42.705Z,-2.30
2023-02-26T03:17:07.473Z,-2.30
2023-02-26T03:18:42.977Z,-2.30
2023-02-26T03:20:14.130Z,-2.30
2023-02-26T03:21:48.113Z,-2.30
2023-02-26T03:22:49.936Z,-2.30
2023-02-26T03:24:09.669Z,-2.40
2023-02-26T03:25:18.222Z,-2.40
2023-02-26T03:26:29.957Z,-2.30
2023-02-26T03:27:44.867Z,-2.30
2023-02-26T03:28:57.152Z,-2.30
2023-02-26T03:30:16.033Z,-2.30
2023-02-26T03:31:31.283Z,-2.30
2023-02-26T03:32:53.950Z,-2.30
2023-02-26T03:34:02.668Z,-2.30
2023-02-26T03:35:30.495Z,-2.40
2023-02-26T03:36:35.997Z,-2.30
2023-02-26T03:37:47.095Z,-2.30
2023-02-26T03:39:12.490Z,-2.40
2023-02-26T03:40:24.972Z,-2.30
2023-02-26T03:41:56.705Z,-2.40
2023-02-26T03:43:10.721Z,-2.40
2023-02-26T03:44:36.494Z,-2.40
2023-02-26T03:45:41.680Z,-2.30
2023-02-26T03:46:48.132Z,-2.40
2023-02-26T03:47:53.885Z,-2.40
2023-02-26T03:48:59.025Z,-2.40
2023-02-26T03:50:20.298Z,-2.50
2023-02-26T03:51:23.322Z,-2.50
2023-02-26T03:52:28.962Z,-2.50
2023-02-26T03:53:34.739Z,-2.50
2023-02-26T03:54:42.358Z,-2.50
2023-02-26T03:56:00.868Z,-2.50
2023-02-26T03:57:03.159Z,-2.50
2023-02-26T03:58:05.200Z,-2.50
2023-02-26T03:59:07.315Z,-2.50
2023-02-26T04:00:10.515Z,-2.50
2023-02-26T04:01:29.350Z,-2.50
2023-02-26T04:02:35.139Z,-2.50
2023-02-26T04:03:40.235Z,-2.50
2023-02-26T04:04:42.484Z,-2.50
2023-02-26T04:05:47.309Z,-2.50
2023-02-26T04:06:49.429Z,-2.50
2023-02-26T04:07:51.337Z,-2.50
2023-02-26T04:08:53.493Z,-2.50
2023-02-26T04:09:56.289Z,-2.50
2023-02-26T04:10:59.519Z,-2.50
2023-02-26T04:12:01.265Z,-2.50
2023-02-26T04:13:03.094Z,-2.50
2023-02-26T04:14:04.922Z,-2.50
2023-02-26T04:15:07.049Z,-2.50
2023-02-26T04:16:08.910Z,-2.50
2023-02-26T04:17:10.671Z,-2.50
2023-02-26T04:18:12.429Z,-2.50
2023-02-26T04:19:14.402Z,-2.60
2023-02-26T04:20:16.332Z,-2.60
2023-02-26T04:21:20.366Z,-2.60
2023-02-26T04:22:22.074Z,-2.50
2023-02-26T04:23:24.226Z,-2.60
2023-02-26T04:24:26.187Z,-2.60
2023-02-26T04:25:27.947Z,-2.60
2023-02-26T04:26:29.728Z,-2.60
2023-02-26T04:27:31.438Z,-2.70
2023-02-26T04:28:34.719Z,-2.70
2023-02-26T04:29:37.838Z,-2.80
2023-02-26T04:30:39.717Z,-2.80
2023-02-26T04:31:41.884Z,-2.80
2023-02-26T04:32:43.877Z,-2.80
2023-02-26T04:33:45.595Z,-2.80
2023-02-26T04:34:47.359Z,-2.80
2023-02-26T04:35:49.388Z,-2.90
2023-02-26T04:36:51.138Z,-2.90
2023-02-26T04:37:52.885Z,-2.90
2023-02-26T04:38:54.644Z,-2.90
2023-02-26T04:39:56.421Z,-2.90
2023-02-26T04:40:58.204Z,-3.00
2023-02-26T04:41:59.916Z,-3.00
2023-02-26T04:43:01.632Z,-3.00
2023-02-26T04:44:04.243Z,-3.00
2023-02-26T04:45:06.231Z,-3.00
2023-02-26T04:46:08.114Z,-3.00
2023-02-26T04:47:09.937Z,-3.10
2023-02-26T04:48:11.673Z,-3.00
2023-02-26T04:49:13.398Z,-3.10
2023-02-26T04:50:15.125Z,-3.10
2023-02-26T04:51:16.903Z,-3.10
2023-02-26T04:52:18.700Z,-3.10
2023-02-26T04:53:20.578Z,-3.10
2023-02-26T04:54:22.406Z,-3.10
2023-02-26T04:55:24.254Z,-3.10
2023-02-26T04:56:26.844Z,-3.10
2023-02-26T04:57:28.979Z,-3.10
2023-02-26T04:58:30.852Z,-3.10
2023-02-26T04:59:32.961Z,-3.10
2023-02-26T05:00:35.051Z,-3.10
2023-02-26T05:01:37.014Z,-3.20
2023-02-26T05:02:41.521Z,-3.10
2023-02-26T05:03:43.356Z,-3.10
2023-02-26T05:04:45.270Z,-3.10
2023-02-26T05:05:47.785Z,-3.10
2023-02-26T05:06:49.774Z,-3.10
2023-02-26T05:07:53.925Z,-3.20
2023-02-26T05:08:55.729Z,-3.20
2023-02-26T05:09:57.574Z,-3.20
2023-02-26T05:10:59.391Z,-3.20
2023-02-26T05:12:01.279Z,-3.20
2023-02-26T05:13:03.664Z,-3.20
2023-02-26T05:14:05.488Z,-3.20
2023-02-26T05:15:08.092Z,-3.30
2023-02-26T05:16:10.011Z,-3.30
2023-02-26T05:17:12.275Z,-3.30
2023-02-26T05:18:14.197Z,-3.30
2023-02-26T05:19:16.913Z,-3.30
2023-02-26T05:20:18.778Z,-3.30
2023-02-26T05:21:22.711Z,-3.30
2023-02-26T05:22:25.386Z,-3.30
2023-02-26T05:23:27.626Z,-3.30
2023-02-26T05:24:29.522Z,-3.30
2023-02-26T05:25:31.405Z,-3.30
2023-02-26T05:26:33.519Z,-3.30
2023-02-26T05:27:35.584Z,-3.30
2023-02-26T05:28:38.176Z,-3.30
2023-02-26T05:29:42.166Z,-3.30
2023-02-26T05:30:44.152Z,-3.30
2023-02-26T05:31:46.352Z,-3.40
2023-02-26T05:32:48.426Z,-3.40
2023-02-26T05:33:50.466Z,-3.40
2023-02-26T05:34:52.270Z,-3.40
2023-02-26T05:35:54.421Z,-3.40
2023-02-26T05:36:56.263Z,-3.40
2023-02-26T05:37:58.249Z,-3.40
2023-02-26T05:39:00.529Z,-3.40
2023-02-26T05:40:02.870Z,-3.40
2023-02-26T05:41:04.945Z,-3.40
2023-02-26T05:42:07.216Z,-3.40
2023-02-26T05:43:09.235Z,-3.40
2023-02-26T05:44:11.454Z,-3.40
2023-02-26T05:45:13.511Z,-3.40
2023-02-26T05:46:15.481Z,-3.40
2023-02-26T05:47:17.603Z,-3.40
2023-02-26T05:48:19.544Z,-3.40
2023-02-26T05:49:21.634Z,-3.40
2023-02-26T05:50:23.498Z,-3.40
2023-02-26T05:51:25.355Z,-3.40
2023-02-26T05:52:27.257Z,-3.30
2023-02-26T05:53:29.708Z,-3.40
2023-02-26T05:54:31.625Z,-3.40
2023-02-26T05:55:33.459Z,-3.40
2023-02-26T05:56:35.434Z,-3.40
2023-02-26T05:57:37.290Z,-3.40
2023-02-26T05:58:39.154Z,-3.40
2023-02-26T05:59:41.045Z,-3.40
2023-02-26T06:00:43.513Z,-3.40
2023-02-26T06:01:45.602Z,-3.40
2023-02-26T06:02:47.441Z,-3.40
2023-02-26T06:03:49.772Z,-3.40
2023-02-26T06:04:51.639Z,-3.40
2023-02-26T06:05:53.468Z,-3.40
2023-02-26T06:06:55.444Z,-3.40
2023-02-26T06:07:57.737Z,-3.40
2023-02-26T06:09:01.377Z,-3.40
2023-02-26T06:10:03.764Z,-3.40
2023-02-26T06:11:06.300Z,-3.40
2023-02-26T06:12:08.318Z,-3.40
2023-02-26T06:13:10.204Z,-3.40
2023-02-26T06:14:12.248Z,-3.50
2023-02-26T06:15:14.105Z,-3.50
2023-02-26T06:16:16.261Z,-3.40
2023-02-26T06:17:21.433Z,-3.50
2023-02-26T06:18:26.421Z,-3.40
2023-02-26T06:19:28.307Z,-3.50
2023-02-26T06:20:30.288Z,-3.50
2023-02-26T06:21:32.235Z,-3.50
2023-02-26T06:22:34.116Z,-3.50
2023-02-26T06:23:36.430Z,-3.50
2023-02-26T06:24:38.340Z,-3.50
2023-02-26T06:25:40.336Z,-3.50
2023-02-26T06:26:43.444Z,-3.50
2023-02-26T06:27:45.276Z,-3.60
2023-02-26T06:28:59.603Z,-3.50
2023-02-26T06:30:05.727Z,-3.50
2023-02-26T06:31:07.744Z,-3.60
2023-02-26T06:32:09.812Z,-3.60
2023-02-26T06:33:11.784Z,-3.60
2023-02-26T06:34:13.739Z,-3.50
2023-02-26T06:35:15.857Z,-3.50
2023-02-26T06:36:17.733Z,-3.60
2023-02-26T06:37:19.613Z,-3.50
2023-02-26T06:38:21.493Z,-3.60
2023-02-26T06:39:23.458Z,-3.60
2023-02-26T06:40:25.388Z,-3.50
2023-02-26T06:41:27.370Z,-3.60
2023-02-26T06:42:29.259Z,-3.60
2023-02-26T06:43:31.085Z,-3.70
2023-02-26T06:44:32.984Z,-3.70
2023-02-26T06:45:35.540Z,-3.70
2023-02-26T06:46:38.029Z,-3.70
2023-02-26T06:47:40.276Z,-3.70
2023-02-26T06:48:42.157Z,-3.70
2023-02-26T06:49:43.981Z,-3.60
2023-02-26T06:50:45.857Z,-3.60
2023-02-26T06:51:47.839Z,-3.60
2023-02-26T06:52:49.790Z,-3.60
2023-02-26T06:53:51.713Z,-3.60
2023-02-26T06:54:53.593Z,-3.60
2023-02-26T06:55:55.527Z,-3.60
2023-02-26T06:56:57.875Z,-3.60
2023-02-26T06:57:59.963Z,-3.50
2023-02-26T06:59:01.876Z,-3.50
2023-02-26T07:00:09.392Z,-3.50
2023-02-26T07:01:11.284Z,-3.60
2023-02-26T07:02:17.997Z,-3.60
2023-02-26T07:03:21.062Z,-3.60
2023-02-26T07:04:23.034Z,-3.60
2023-02-26T07:05:25.364Z,-3.60
2023-02-26T07:06:28.175Z,-3.50
2023-02-26T07:07:30.554Z,-3.50
2023-02-26T07:08:32.424Z,-3.50
2023-02-26T07:09:34.356Z,-3.50
2023-02-26T07:10:37.469Z,-3.50
2023-02-26T07:11:39.754Z,-3.40
2023-02-26T07:12:41.615Z,-3.50
2023-02-26T07:13:43.443Z,-3.50
2023-02-26T07:14:46.112Z,-3.50
2023-02-26T07:15:48.024Z,-3.50
2023-02-26T07:16:50.110Z,-3.50
2023-02-26T07:17:52.100Z,-3.50
2023-02-26T07:18:54.045Z,-3.50
2023-02-26T07:19:55.946Z,-3.50
2023-02-26T07:20:57.872Z,-3.50
2023-02-26T07:21:59.727Z,-3.50
2023-02-26T07:23:01.733Z,-3.50
2023-02-26T07:24:03.856Z,-3.50
2023-02-26T07:25:07.218Z,-3.50
2023-02-26T07:26:09.131Z,-3.50
2023-02-26T07:27:11.351Z,-3.40
2023-02-26T07:28:13.160Z,-3.50
2023-02-26T07:29:15.095Z,-3.40
2023-02-26T07:30:17.237Z,-3.50
2023-02-26T07:31:20.074Z,-3.50
2023-02-26T07:32:22.769Z,-3.50
2023-02-26T07:33:26.641Z,-3.40
2023-02-26T07:34:28.748Z,-3.40
2023-02-26T07:35:30.692Z,-3.40
2023-02-26T07:36:32.649Z,-3.40
2023-02-26T07:37:34.729Z,-3.40
2023-02-26T07:38:36.701Z,-3.40
2023-02-26T07:39:38.800Z,-3.40
2023-02-26T07:40:40.690Z,-3.40
2023-02-26T07:41:43.550Z,-3.40
2023-02-26T07:42:45.493Z,-3.40
2023-02-26T07:43:47.405Z,-3.40
2023-02-26T07:44:49.347Z,-3.40
2023-02-26T07:45:52.393Z,-3.40
2023-02-26T07:46:54.404Z,-3.40
2023-02-26T07:47:56.317Z,-3.40
2023-02-26T07:48:58.170Z,-3.40
2023-02-26T07:50:00.201Z,-3.40
2023-02-26T07:51:02.101Z,-3.40
2023-02-26T07:52:04.245Z,-3.40
2023-02-26T07:53:06.274Z,-3.40
2023-02-26T07:54:08.111Z,-3.30
2023-02-26T07:55:11.264Z,-3.30
2023-02-26T07:56:13.212Z,-3.30
2023-02-26T07:57:15.087Z,-3.30
2023-02-26T07:58:17.594Z,-3.30
2023-02-26T07:59:20.749Z,-3.30
2023-02-26T08:00:22.880Z,-3.30
2023-02-26T08:01:24.940Z,-3.20
2023-02-26T08:02:27.007Z,-3.30
2023-02-26T08:03:29.006Z,-3.30
2023-02-26T08:04:33.102Z,-3.30
2023-02-26T08:05:35.030Z,-3.30
2023-02-26T08:06:37.397Z,-3.30
2023-02-26T08:07:39.273Z,-3.20
2023-02-26T08:08:41.155Z,-3.20
2023-02-26T08:09:43.082Z,-3.20
2023-02-26T08:10:45.034Z,-3.20
2023-02-26T08:11:48.153Z,-3.20
2023-02-26T08:12:50.024Z,-3.10
2023-02-26T08:13:52.041Z,-3.10
2023-02-26T08:14:53.915Z,-3.10
2023-02-26T08:15:55.879Z,-3.10
2023-02-26T08:16:57.889Z,-3.10
2023-02-26T08:17:59.745Z,-3.10
2023-02-26T08:19:01.722Z,-3.10
2023-02-26T08:20:05.174Z,-3.00
2023-02-26T08:21:07.830Z,-3.00
2023-02-26T08:22:09.724Z,-2.90
2023-02-26T08:23:11.600Z,-2.90
2023-02-26T08:24:14.082Z,-2.90
2023-02-26T08:25:16.180Z,-2.90
2023-02-26T08:26:18.889Z,-2.80
2023-02-26T08:27:20.998Z,-2.90
2023-02-26T08:28:22.861Z,-2.80
2023-02-26T08:29:25.348Z,-2.90
2023-02-26T08:30:27.266Z,-2.90
2023-02-26T08:31:29.333Z,-2.90
2023-02-26T08:32:31.404Z,-2.90
2023-02-26T08:33:34.199Z,-2.90
2023-02-26T08:34:36.155Z,-2.90
2023-02-26T08:35:39.333Z,-2.90
2023-02-26T08:36:41.187Z,-2.80
2023-02-26T08:37:43.285Z,-2.80
2023-02-26T08:38:45.205Z,-2.80
2023-02-26T08:39:47.131Z,-2.90
2023-02-26T08:40:52.848Z,-2.90
2023-02-26T08:41:54.721Z,-2.90
2023-02-26T08:42:58.467Z,-2.80
2023-02-26T08:44:02.407Z,-2.80
2023-02-26T08:45:04.733Z,-2.80
2023-02-26T08:46:06.878Z,-2.80
2023-02-26T08:47:09.315Z,-2.80
2023-02-26T08:48:11.381Z,-2.80
2023-02-26T08:49:13.314Z,-2.70
2023-02-26T08:50:15.976Z,-2.60
2023-02-26T08:51:19.084Z,-2.60
2023-02-26T08:52:21.586Z,-2.60
2023-02-26T08:53:23.574Z,-2.60
2023-02-26T08:54:25.653Z,-2.60
2023-02-26T08:55:27.586Z,-2.60
2023-02-26T08:56:29.952Z,-2.60
2023-02-26T08:57:31.959Z,-2.50
2023-02-26T08:58:34.070Z,-2.60
2023-02-26T08:59:36.162Z,-2.50
2023-02-26T09:00:38.240Z,-2.50
2023-02-26T09:01:40.454Z,-2.60
2023-02-26T09:02:42.835Z,-2.50
2023-02-26T09:03:54.079Z,-2.50
2023-02-26T09:04:56.059Z,-2.60
2023-02-26T09:05:58.096Z,-2.60
2023-02-26T09:07:00.161Z,-2.50
2023-02-26T09:08:02.062Z,-2.50
2023-02-26T09:09:04.527Z,-2.50
2023-02-26T09:10:07.381Z,-2.50
2023-02-26T09:11:12.639Z,-2.50
2023-02-26T09:12:14.465Z,-2.40
2023-02-26T09:13:16.355Z,-2.40
2023-02-26T09:14:18.400Z,-2.40
2023-02-26T09:15:20.812Z,-2.40
2023-02-26T09:16:22.857Z,-2.40
2023-02-26T09:17:26.007Z,-2.40
2023-02-26T09:18:28.171Z,-2.40
2023-02-26T09:19:32.727Z,-2.50
2023-02-26T09:20:40.969Z,-2.50
2023-02-26T09:21:45.030Z,-2.50
2023-02-26T09:22:47.072Z,-2.50
2023-02-26T09:23:49.003Z,-2.50
2023-02-26T09:24:51.149Z,-2.50
2023-02-26T09:25:55.030Z,-2.50
2023-02-26T09:26:59.296Z,-2.50
2023-02-26T09:28:04.928Z,-2.50
2023-02-26T09:29:06.965Z,-2.50
2023-02-26T09:30:10.099Z,-2.50
2023-02-26T09:31:12.278Z,-2.50
2023-02-26T09:32:14.576Z,-2.40
2023-02-26T09:33:16.589Z,-2.50
2023-02-26T09:34:18.769Z,-2.40
2023-02-26T09:35:22.576Z,-2.50
2023-02-26T09:36:24.833Z,-2.50
2023-02-26T09:37:26.904Z,-2.50
2023-02-26T09:38:28.953Z,-2.50
2023-02-26T09:39:30.808Z,-2.40
2023-02-26T09:40:47.765Z,-2.40
2023-02-26T09:41:56.445Z,-2.40
2023-02-26T09:43:19.188Z,-2.30
2023-02-26T09:44:27.011Z,-2.30
2023-02-26T09:45:36.541Z,-2.30
2023-02-26T09:46:56.847Z,-2.20
2023-02-26T09:48:00.133Z,-2.10
2023-02-26T09:49:10.925Z,-2.10
2023-02-26T09:50:12.663Z,-2.00
2023-02-26T09:51:18.534Z,-2.10
2023-02-26T09:52:32.442Z,-2.00
2023-02-26T09:53:41.340Z,-2.00
2023-02-26T09:54:53.474Z,-2.00
2023-02-26T09:56:02.034Z,-2.00
2023-02-26T09:57:06.066Z,-2.00
2023-02-26T09:58:19.132Z,-2.10
2023-02-26T09:59:21.368Z,-2.10
2023-02-26T10:00:52.353Z,-2.10
2023-02-26T10:02:32.550Z,-2.10
2023-02-26T10:03:52.872Z,-2.20
2023-02-26T10:05:17.486Z,-2.10
2023-02-26T10:06:31.034Z,-2.20
2023-02-26T10:07:51.208Z,-2.30
2023-02-26T10:09:15.274Z,-2.30
2023-02-26T10:10:45.454Z,-2.20
2023-02-26T10:11:57.478Z,-2.20
2023-02-26T10:13:02.162Z,-2.20
2023-02-26T10:14:32.245Z,-2.10
2023-02-26T10:15:42.612Z,-2.10
2023-02-26T10:16:50.930Z,-2.10
2023-02-26T10:17:58.939Z,-2.10
2023-02-26T10:19:08.806Z,-2.10
2023-02-26T10:20:19.911Z,-2.10
2023-02-26T10:21:30.560Z,-2.10
2023-02-26T10:22:42.127Z,-2.10
2023-02-26T10:23:48.884Z,-2.10
2023-02-26T10:24:52.571Z,-2.00
2023-02-26T10:26:02.111Z,-2.00
2023-02-26T10:27:09.709Z,-2.10
2023-02-26T10:28:14.454Z,-2.10
2023-02-26T10:29:24.409Z,-2.00
2023-02-26T10:30:34.933Z,-2.00
2023-02-26T10:31:55.404Z,-2.00
2023-02-26T10:33:04.648Z,-2.00
2023-02-26T10:34:09.511Z,-2.00
2023-02-26T10:35:17.896Z,-2.00
2023-02-26T10:36:24.418Z,-2.00
2023-02-26T10:37:28.667Z,-2.00
2023-02-26T10:38:31.928Z,-2.00
2023-02-26T10:39:44.710Z,-1.90
2023-02-26T10:40:59.481Z,-1.80
2023-02-26T10:42:05.220Z,-1.70
2023-02-26T10:43:21.636Z,-1.70
2023-02-26T10:44:49.595Z,-1.80
2023-02-26T10:46:03.916Z,-1.80
2023-02-26T10:47:08.304Z,-1.80
2023-02-26T10:48:13.074Z,-1.90
2023-02-26T10:49:30.527Z,-1.90
2023-02-26T10:50:32.402Z,-1.90
2023-02-26T10:51:38.400Z,-1.90
2023-02-26T10:52:42.256Z,-1.90
2023-02-26T10:53:45.784Z,-1.80
2023-02-26T10:55:03.975Z,-1.80
2023-02-26T10:56:05.714Z,-1.80
2023-02-26T10:57:14.818Z,-1.90
2023-02-26T10:58:18.029Z,-1.90
2023-02-26T10:59:19.730Z,-1.90
2023-02-26T11:00:22.605Z,-1.90
2023-02-26T11:01:25.641Z,-2.00
2023-02-26T11:02:41.444Z,-2.00
2023-02-26T11:03:51.806Z,-2.00
2023-02-26T11:05:06.709Z,-2.10
2023-02-26T11:06:19.679Z,-2.20
2023-02-26T11:07:22.294Z,-2.20
2023-02-26T11:08:26.958Z,-2.20
2023-02-26T11:09:32.920Z,-2.20
2023-02-26T11:10:54.057Z,-2.20
2023-02-26T11:12:06.138Z,-2.10
2023-02-26T11:13:08.952Z,-2.10
2023-02-26T11:14:11.497Z,-2.10
2023-02-26T11:15:18.816Z,-2.10
2023-02-26T11:16:20.786Z,-2.10
2023-02-26T11:17:28.172Z,-2.10
2023-02-26T11:18:38.394Z,-2.10
2023-02-26T11:19:42.403Z,-2.00
2023-02-26T11:20:45.610Z,-1.90
2023-02-26T11:21:48.112Z,-1.90
2023-02-26T11:22:52.376Z,-1.80
2023-02-26T11:24:05.666Z,-1.70
2023-02-26T11:25:07.771Z,-1.60
2023-02-26T11:26:14.951Z,-1.50
2023-02-26T11:27:19.033Z,-1.50
2023-02-26T11:28:22.845Z,-1.60
2023-02-26T11:29:25.369Z,-1.50
2023-02-26T11:30:29.621Z,-1.50
2023-02-26T11:31:32.405Z,-1.40
2023-02-26T11:32:36.027Z,-1.30
2023-02-26T11:33:44.797Z,-1.10
2023-02-26T11:34:47.801Z,-0.80
2023-02-26T11:35:49.815Z,-0.60
2023-02-26T11:36:53.204Z,-0.40
2023-02-26T11:37:58.615Z,-0.20
2023-02-26T11:39:21.317Z,0.20
2023-02-26T11:40:25.282Z,0.90
2023-02-26T11:41:28.359Z,1.40
2023-02-26T11:42:30.321Z,1.50
2023-02-26T11:43:44.412Z,1.30
2023-02-26T11:44:47.228Z,1.30
2023-02-26T11:45:52.548Z,1.00
2023-02-26T11:46:58.090Z,0.90
2023-02-26T11:48:02.422Z,0.70
2023-02-26T11:49:04.452Z,0.50
2023-02-26T11:50:12.918Z,0.30
2023-02-26T11:51:16.864Z,0.00
2023-02-26T11:52:18.582Z,-0.30
2023-02-26T11:53:27.376Z,-0.40
2023-02-26T11:54:29.720Z,-0.50
2023-02-26T11:55:36.717Z,-0.70
2023-02-26T11:56:41.749Z,-0.70
2023-02-26T11:57:43.796Z,-0.80
2023-02-26T11:58:46.425Z,-0.80
2023-02-26T11:59:49.427Z,-0.80
2023-02-26T12:00:52.463Z,-0.80
2023-02-26T12:01:54.227Z,-0.90
2023-02-26T12:03:04.704Z,-1.00
2023-02-26T12:04:07.900Z,-1.00
2023-02-26T12:05:12.970Z,-1.00
2023-02-26T12:06:22.123Z,-1.00
2023-02-26T12:07:23.962Z,-0.90
2023-02-26T12:08:38.445Z,-0.90
2023-02-26T12:09:40.344Z,-0.70
2023-02-26T12:11:00.857Z,-0.70
2023-02-26T12:12:20.867Z,-0.70
2023-02-26T12:13:26.448Z,-0.70
2023-02-26T12:14:34.028Z,-0.70
2023-02-26T12:15:40.880Z,-0.70
2023-02-26T12:16:42.655Z,-0.70
2023-02-26T12:17:59.699Z,-0.60
2023-02-26T12:19:15.776Z,-0.40
2023-02-26T12:20:19.874Z,-0.40
2023-02-26T12:21:25.190Z,-0.30
2023-02-26T12:22:34.897Z,-0.20
2023-02-26T12:23:39.416Z,0.00
2023-02-26T12:25:01.793Z,0.10
2023-02-26T12:26:22.307Z,0.10
2023-02-26T12:27:47.971Z,-0.10
2023-02-26T12:29:11.636Z,-0.20
2023-02-26T12:30:22.206Z,-0.30
2023-02-26T12:31:44.264Z,-0.50
2023-02-26T12:32:52.680Z,-0.70
2023-02-26T12:34:08.012Z,-0.80
2023-02-26T12:35:17.591Z,-0.90
2023-02-26T12:36:36.335Z,-0.90
2023-02-26T12:37:48.683Z,-0.80
2023-02-26T12:39:09.200Z,-0.90
2023-02-26T12:40:13.957Z,-0.90
2023-02-26T12:41:22.989Z,-0.90
2023-02-26T12:42:33.850Z,-1.00
2023-02-26T12:43:35.800Z,-1.00
2023-02-26T12:44:53.041Z,-1.00
2023-02-26T12:46:17.576Z,-0.90
2023-02-26T12:47:32.132Z,-0.90
2023-02-26T12:48:39.807Z,-0.90
2023-02-26T12:49:47.173Z,-0.90
2023-02-26T12:50:49.004Z,-0.80
2023-02-26T12:52:09.278Z,-0.80
2023-02-26T12:53:29.670Z,-0.80
2023-02-26T12:54:42.718Z,-0.90
2023-02-26T12:55:47.250Z,-1.00
2023-02-26T12:56:56.562Z,-1.10
2023-02-26T12:57:58.246Z,-1.10
2023-02-26T12:59:15.298Z,-1.20
2023-02-26T13:00:24.145Z,-1.10
2023-02-26T13:02:00.856Z,-1.10
2023-02-26T13:03:23.583Z,-1.20
2023-02-26T13:04:43.693Z,-1.10
2023-02-26T13:06:00.804Z,-1.20
2023-02-26T13:07:21.784Z,-1.20
2023-02-26T13:08:26.435Z,-1.20
2023-02-26T13:09:39.718Z,-1.10
2023-02-26T13:10:48.188Z,-1.10
2023-02-26T13:11:52.749Z,-1.10
2023-02-26T13:13:13.252Z,-1.20
2023-02-26T13:14:33.767Z,-1.20
2023-02-26T13:15:39.374Z,-1.20
2023-02-26T13:17:01.344Z,-1.20
2023-02-26T13:18:03.248Z,-1.20
2023-02-26T13:19:22.770Z,-1.10
2023-02-26T13:20:26.777Z,-1.00
2023-02-26T13:21:36.414Z,-1.10
2023-02-26T13:22:43.876Z,-1.10
2023-02-26T13:23:48.396Z,-1.10
2023-02-26T13:24:59.622Z,-1.00
2023-02-26T13:26:02.674Z,-1.00
2023-02-26T13:27:04.977Z,-1.00
2023-02-26T13:28:32.983Z,-1.00
2023-02-26T13:29:37.152Z,-1.00
2023-02-26T13:30:41.618Z,-1.00
2023-02-26T13:31:45.780Z,-1.00
2023-02-26T13:32:49.641Z,-1.00
2023-02-26T13:33:51.983Z,-1.00
2023-02-26T13:34:58.730Z,-1.00
2023-02-26T13:36:01.381Z,-1.00
2023-02-26T13:37:03.755Z,-0.90
2023-02-26T13:38:14.718Z,-0.90
2023-02-26T13:39:31.102Z,-1.00
2023-02-26T13:40:42.620Z,-1.00
2023-02-26T13:41:44.302Z,-1.10
2023-02-26T13:42:51.866Z,-1.10
2023-02-26T13:44:28.767Z,-1.00
2023-02-26T13:45:52.636Z,-1.00
2023-02-26T13:47:16.925Z,-1.00
2023-02-26T13:48:40.279Z,-1.00
2023-02-26T13:49:55.635Z,-1.00
2023-02-26T13:51:05.783Z,-1.00
2023-02-26T13:52:22.010Z,-0.90
2023-02-26T13:53:25.492Z,-0.90
2023-02-26T13:54:35.344Z,-0.90
2023-02-26T13:55:43.268Z,-0.90
2023-02-26T13:57:03.410Z,-1.00
2023-02-26T13:58:23.678Z,-1.00
2023-02-26T13:59:25.508Z,-1.00
2023-02-26T14:00:34.362Z,-1.10
2023-02-26T14:01:48.911Z,-1.10
2023-02-26T14:02:53.966Z,-1.10
2023-02-26T14:04:29.369Z,-1.10
2023-02-26T14:05:34.878Z,-1.10
2023-02-26T14:06:39.123Z,-1.30
2023-02-26T14:07:49.232Z,-1.20
2023-02-26T14:08:57.359Z,-1.20
2023-02-26T14:10:05.361Z,-1.20
2023-02-26T14:11:07.191Z,-1.20
2023-02-26T14:12:18.326Z,-1.20
2023-02-26T14:13:44.576Z,-1.20
2023-02-26T14:15:04.768Z,-1.30
2023-02-26T14:16:11.400Z,-1.40
2023-02-26T14:17:13.693Z,-1.40